sensor_id;sensor_type;location;lat;lon;timestamp;P1;durP1;ratioP1;P2;durP2;ratioP2
13941;SDS011;7043;51.630;7.254;2022-12-19T00:01:59;32.63;;;21.83;;
13941;SDS011;7043;51.630;7.254;2022-12-19T00:04:25;33.37;;;21.23;;
13941;SDS011;7043;51.630;7.254;2022-12-19T00:06:51;35.17;;;21.93;;
13941;SDS011;7043;51.630;7.254;2022-12-19T00:09:18;33.43;;;21.73;;
13941;SDS011;7043;51.630;7.254;2022-12-19T00:11:44;32.10;;;20.90;;
13941;SDS011;7043;51.630;7.254;2022-12-19T00:14:12;33.63;;;21.53;;
13941;SDS011;7043;51.630;7.254;2022-12-19T00:16:38;33.87;;;21.47;;
13941;SDS011;7043;51.630;7.254;2022-12-19T00:19:04;29.93;;;21.33;;
13941;SDS011;7043;51.630;7.254;2022-12-19T00:21:31;33.07;;;21.87;;
13941;SDS011;7043;51.630;7.254;2022-12-19T00:23:57;32.73;;;21.73;;
13941;SDS011;7043;51.630;7.254;2022-12-19T00:26:30;32.97;;;21.70;;
13941;SDS011;7043;51.630;7.254;2022-12-19T00:28:57;34.57;;;22.17;;
13941;SDS011;7043;51.630;7.254;2022-12-19T00:31:25;34.70;;;23.73;;
13941;SDS011;7043;51.630;7.254;2022-12-19T00:33:51;36.53;;;24.17;;
13941;SDS011;7043;51.630;7.254;2022-12-19T00:36:19;35.13;;;23.37;;
13941;SDS011;7043;51.630;7.254;2022-12-19T00:38:45;34.63;;;22.43;;
13941;SDS011;7043;51.630;7.254;2022-12-19T00:41:14;35.13;;;22.77;;
13941;SDS011;7043;51.630;7.254;2022-12-19T00:43:40;33.17;;;22.47;;
13941;SDS011;7043;51.630;7.254;2022-12-19T00:46:09;34.53;;;22.77;;
13941;SDS011;7043;51.630;7.254;2022-12-19T00:48:35;36.20;;;23.90;;
13941;SDS011;7043;51.630;7.254;2022-12-19T00:51:02;34.37;;;23.47;;
13941;SDS011;7043;51.630;7.254;2022-12-19T00:53:28;38.63;;;23.80;;
13941;SDS011;7043;51.630;7.254;2022-12-19T00:55:54;34.37;;;23.00;;
13941;SDS011;7043;51.630;7.254;2022-12-19T00:58:20;34.57;;;22.73;;
13941;SDS011;7043;51.630;7.254;2022-12-19T01:00:46;34.20;;;22.00;;
13941;SDS011;7043;51.630;7.254;2022-12-19T01:03:12;33.83;;;22.83;;
13941;SDS011;7043;51.630;7.254;2022-12-19T01:05:38;34.13;;;24.10;;
13941;SDS011;7043;51.630;7.254;2022-12-19T01:08:04;37.23;;;23.77;;
13941;SDS011;7043;51.630;7.254;2022-12-19T01:10:30;35.43;;;22.83;;
13941;SDS011;7043;51.630;7.254;2022-12-19T01:12:56;38.33;;;24.20;;
13941;SDS011;7043;51.630;7.254;2022-12-19T01:15:22;35.33;;;25.83;;
13941;SDS011;7043;51.630;7.254;2022-12-19T01:17:48;37.37;;;24.30;;
13941;SDS011;7043;51.630;7.254;2022-12-19T01:20:16;36.97;;;24.90;;
13941;SDS011;7043;51.630;7.254;2022-12-19T01:22:42;42.07;;;27.93;;
13941;SDS011;7043;51.630;7.254;2022-12-19T01:25:09;35.83;;;23.53;;
13941;SDS011;7043;51.630;7.254;2022-12-19T01:27:35;35.73;;;23.20;;
13941;SDS011;7043;51.630;7.254;2022-12-19T01:30:01;35.97;;;23.33;;
13941;SDS011;7043;51.630;7.254;2022-12-19T01:32:27;33.50;;;21.93;;
13941;SDS011;7043;51.630;7.254;2022-12-19T01:34:53;33.60;;;21.80;;
13941;SDS011;7043;51.630;7.254;2022-12-19T01:37:19;36.50;;;21.80;;
13941;SDS011;7043;51.630;7.254;2022-12-19T01:39:45;34.50;;;21.97;;
13941;SDS011;7043;51.630;7.254;2022-12-19T01:42:15;31.33;;;21.97;;
13941;SDS011;7043;51.630;7.254;2022-12-19T01:45:01;33.77;;;21.80;;
13941;SDS011;7043;51.630;7.254;2022-12-19T01:47:27;29.07;;;20.27;;
13941;SDS011;7043;51.630;7.254;2022-12-19T01:49:53;32.60;;;20.90;;
13941;SDS011;7043;51.630;7.254;2022-12-19T01:52:19;35.50;;;22.23;;
13941;SDS011;7043;51.630;7.254;2022-12-19T01:54:45;31.03;;;20.23;;
13941;SDS011;7043;51.630;7.254;2022-12-19T01:57:12;30.37;;;20.97;;
13941;SDS011;7043;51.630;7.254;2022-12-19T01:59:41;33.67;;;22.57;;
13941;SDS011;7043;51.630;7.254;2022-12-19T02:02:09;29.27;;;20.03;;
13941;SDS011;7043;51.630;7.254;2022-12-19T02:04:36;30.97;;;20.17;;
13941;SDS011;7043;51.630;7.254;2022-12-19T02:07:03;29.57;;;19.63;;
13941;SDS011;7043;51.630;7.254;2022-12-19T02:09:30;29.77;;;19.97;;
13941;SDS011;7043;51.630;7.254;2022-12-19T02:11:57;33.13;;;20.70;;
13941;SDS011;7043;51.630;7.254;2022-12-19T02:14:24;33.93;;;19.70;;
13941;SDS011;7043;51.630;7.254;2022-12-19T02:16:54;31.80;;;20.03;;
13941;SDS011;7043;51.630;7.254;2022-12-19T02:33:04;33.20;;;21.30;;
13941;SDS011;7043;51.630;7.254;2022-12-19T02:35:53;32.40;;;21.50;;
13941;SDS011;7043;51.630;7.254;2022-12-19T02:38:31;33.67;;;21.87;;
13941;SDS011;7043;51.630;7.254;2022-12-19T02:41:02;32.73;;;20.80;;
13941;SDS011;7043;51.630;7.254;2022-12-19T02:43:31;30.23;;;20.63;;
13941;SDS011;7043;51.630;7.254;2022-12-19T02:46:00;34.17;;;21.53;;
13941;SDS011;7043;51.630;7.254;2022-12-19T02:48:28;34.10;;;21.37;;
13941;SDS011;7043;51.630;7.254;2022-12-19T02:50:54;32.57;;;21.37;;
13941;SDS011;7043;51.630;7.254;2022-12-19T02:53:20;31.37;;;21.47;;
13941;SDS011;7043;51.630;7.254;2022-12-19T02:55:57;31.50;;;21.93;;
13941;SDS011;7043;51.630;7.254;2022-12-19T03:00:58;31.13;;;21.07;;
13941;SDS011;7043;51.630;7.254;2022-12-19T03:03:31;32.00;;;21.17;;
13941;SDS011;7043;51.630;7.254;2022-12-19T03:11:17;31.97;;;21.43;;
13941;SDS011;7043;51.630;7.254;2022-12-19T03:14:18;28.37;;;20.27;;
13941;SDS011;7043;51.630;7.254;2022-12-19T03:16:37;32.13;;;20.53;;
13941;SDS011;7043;51.630;7.254;2022-12-19T03:19:03;31.20;;;20.30;;
13941;SDS011;7043;51.630;7.254;2022-12-19T03:23:59;27.67;;;19.93;;
13941;SDS011;7043;51.630;7.254;2022-12-19T03:26:30;28.90;;;20.00;;
13941;SDS011;7043;51.630;7.254;2022-12-19T03:31:42;28.03;;;19.40;;
13941;SDS011;7043;51.630;7.254;2022-12-19T03:34:10;25.13;;;18.07;;
13941;SDS011;7043;51.630;7.254;2022-12-19T03:36:40;27.00;;;19.17;;
13941;SDS011;7043;51.630;7.254;2022-12-19T03:39:07;25.83;;;19.17;;
13941;SDS011;7043;51.630;7.254;2022-12-19T03:41:34;27.50;;;18.67;;
13941;SDS011;7043;51.630;7.254;2022-12-19T03:44:19;26.80;;;18.90;;
13941;SDS011;7043;51.630;7.254;2022-12-19T03:46:49;26.03;;;18.53;;
13941;SDS011;7043;51.630;7.254;2022-12-19T03:49:16;26.63;;;19.07;;
13941;SDS011;7043;51.630;7.254;2022-12-19T03:51:45;25.50;;;18.10;;
13941;SDS011;7043;51.630;7.254;2022-12-19T03:54:17;28.20;;;17.70;;
13941;SDS011;7043;51.630;7.254;2022-12-19T03:59:27;23.63;;;17.73;;
13941;SDS011;7043;51.630;7.254;2022-12-19T04:01:54;24.27;;;17.07;;
13941;SDS011;7043;51.630;7.254;2022-12-19T04:04:21;26.40;;;18.40;;
13941;SDS011;7043;51.630;7.254;2022-12-19T04:06:49;27.07;;;18.80;;
13941;SDS011;7043;51.630;7.254;2022-12-19T04:09:15;27.70;;;18.40;;
13941;SDS011;7043;51.630;7.254;2022-12-19T04:11:44;27.87;;;18.77;;
13941;SDS011;7043;51.630;7.254;2022-12-19T04:14:19;27.83;;;18.87;;
13941;SDS011;7043;51.630;7.254;2022-12-19T04:16:48;27.73;;;18.50;;
13941;SDS011;7043;51.630;7.254;2022-12-19T04:22:04;25.97;;;18.83;;
13941;SDS011;7043;51.630;7.254;2022-12-19T04:24:33;27.30;;;18.57;;
13941;SDS011;7043;51.630;7.254;2022-12-19T04:27:00;27.23;;;19.77;;
13941;SDS011;7043;51.630;7.254;2022-12-19T04:29:27;27.50;;;19.60;;
13941;SDS011;7043;51.630;7.254;2022-12-19T04:31:55;29.27;;;19.83;;
13941;SDS011;7043;51.630;7.254;2022-12-19T04:34:21;29.33;;;19.60;;
13941;SDS011;7043;51.630;7.254;2022-12-19T04:36:47;29.70;;;20.03;;
13941;SDS011;7043;51.630;7.254;2022-12-19T04:39:13;29.20;;;19.30;;
13941;SDS011;7043;51.630;7.254;2022-12-19T04:41:39;26.30;;;19.63;;
13941;SDS011;7043;51.630;7.254;2022-12-19T04:44:05;27.83;;;18.53;;
13941;SDS011;7043;51.630;7.254;2022-12-19T04:46:32;29.53;;;21.37;;
13941;SDS011;7043;51.630;7.254;2022-12-19T04:48:58;26.70;;;19.47;;
13941;SDS011;7043;51.630;7.254;2022-12-19T04:51:24;29.47;;;19.83;;
13941;SDS011;7043;51.630;7.254;2022-12-19T04:53:50;30.00;;;20.00;;
13941;SDS011;7043;51.630;7.254;2022-12-19T04:56:16;28.33;;;19.43;;
13941;SDS011;7043;51.630;7.254;2022-12-19T04:58:41;30.13;;;21.20;;
13941;SDS011;7043;51.630;7.254;2022-12-19T05:01:07;28.20;;;20.03;;
13941;SDS011;7043;51.630;7.254;2022-12-19T05:03:34;32.03;;;20.20;;
13941;SDS011;7043;51.630;7.254;2022-12-19T05:08:30;27.70;;;19.77;;
13941;SDS011;7043;51.630;7.254;2022-12-19T05:10:59;29.83;;;20.67;;
13941;SDS011;7043;51.630;7.254;2022-12-19T05:13:26;33.20;;;21.83;;
13941;SDS011;7043;51.630;7.254;2022-12-19T05:15:58;34.40;;;22.60;;
13941;SDS011;7043;51.630;7.254;2022-12-19T05:18:24;33.53;;;23.37;;
13941;SDS011;7043;51.630;7.254;2022-12-19T05:20:51;35.30;;;23.30;;
13941;SDS011;7043;51.630;7.254;2022-12-19T05:23:17;33.07;;;22.20;;
13941;SDS011;7043;51.630;7.254;2022-12-19T05:25:43;34.30;;;23.47;;
13941;SDS011;7043;51.630;7.254;2022-12-19T05:28:09;35.50;;;22.80;;
13941;SDS011;7043;51.630;7.254;2022-12-19T05:30:35;33.43;;;23.80;;
13941;SDS011;7043;51.630;7.254;2022-12-19T05:33:01;37.23;;;24.30;;
13941;SDS011;7043;51.630;7.254;2022-12-19T05:35:27;35.23;;;23.70;;
13941;SDS011;7043;51.630;7.254;2022-12-19T05:37:53;37.43;;;24.50;;
13941;SDS011;7043;51.630;7.254;2022-12-19T05:40:19;35.57;;;24.93;;
13941;SDS011;7043;51.630;7.254;2022-12-19T05:42:45;37.97;;;24.03;;
13941;SDS011;7043;51.630;7.254;2022-12-19T05:45:11;33.73;;;24.07;;
13941;SDS011;7043;51.630;7.254;2022-12-19T05:47:37;36.63;;;24.90;;
13941;SDS011;7043;51.630;7.254;2022-12-19T05:50:03;34.47;;;23.90;;
13941;SDS011;7043;51.630;7.254;2022-12-19T05:52:30;35.40;;;23.03;;
13941;SDS011;7043;51.630;7.254;2022-12-19T05:54:58;32.87;;;23.30;;
13941;SDS011;7043;51.630;7.254;2022-12-19T05:57:24;33.13;;;23.47;;
13941;SDS011;7043;51.630;7.254;2022-12-19T05:59:50;31.23;;;22.23;;
13941;SDS011;7043;51.630;7.254;2022-12-19T06:02:16;31.97;;;23.37;;
13941;SDS011;7043;51.630;7.254;2022-12-19T06:04:44;34.97;;;22.93;;
13941;SDS011;7043;51.630;7.254;2022-12-19T06:07:10;34.33;;;23.30;;
13941;SDS011;7043;51.630;7.254;2022-12-19T06:09:36;34.67;;;23.10;;
13941;SDS011;7043;51.630;7.254;2022-12-19T06:12:03;34.83;;;22.60;;
13941;SDS011;7043;51.630;7.254;2022-12-19T06:14:29;35.10;;;24.43;;
13941;SDS011;7043;51.630;7.254;2022-12-19T06:16:55;33.80;;;23.63;;
13941;SDS011;7043;51.630;7.254;2022-12-19T06:19:21;35.43;;;24.93;;
13941;SDS011;7043;51.630;7.254;2022-12-19T06:21:47;34.70;;;22.73;;
13941;SDS011;7043;51.630;7.254;2022-12-19T06:24:13;34.10;;;23.10;;
13941;SDS011;7043;51.630;7.254;2022-12-19T06:26:39;32.03;;;23.40;;
13941;SDS011;7043;51.630;7.254;2022-12-19T06:29:05;32.67;;;22.57;;
13941;SDS011;7043;51.630;7.254;2022-12-19T06:31:31;31.83;;;22.43;;
13941;SDS011;7043;51.630;7.254;2022-12-19T06:33:57;35.10;;;23.13;;
13941;SDS011;7043;51.630;7.254;2022-12-19T06:36:26;31.37;;;22.53;;
13941;SDS011;7043;51.630;7.254;2022-12-19T06:38:53;33.10;;;23.73;;
13941;SDS011;7043;51.630;7.254;2022-12-19T06:41:19;35.33;;;23.43;;
13941;SDS011;7043;51.630;7.254;2022-12-19T06:44:05;29.67;;;21.87;;
13941;SDS011;7043;51.630;7.254;2022-12-19T06:46:32;30.37;;;22.90;;
13941;SDS011;7043;51.630;7.254;2022-12-19T06:49:00;31.60;;;22.60;;
13941;SDS011;7043;51.630;7.254;2022-12-19T06:51:26;31.67;;;23.20;;
13941;SDS011;7043;51.630;7.254;2022-12-19T06:53:52;32.57;;;22.50;;
13941;SDS011;7043;51.630;7.254;2022-12-19T06:56:18;35.27;;;23.50;;
13941;SDS011;7043;51.630;7.254;2022-12-19T06:58:44;30.47;;;21.87;;
13941;SDS011;7043;51.630;7.254;2022-12-19T07:03:42;32.90;;;22.40;;
13941;SDS011;7043;51.630;7.254;2022-12-19T07:06:09;35.10;;;23.20;;
13941;SDS011;7043;51.630;7.254;2022-12-19T07:08:35;31.10;;;21.37;;
13941;SDS011;7043;51.630;7.254;2022-12-19T07:11:01;30.70;;;22.00;;
13941;SDS011;7043;51.630;7.254;2022-12-19T07:13:27;29.63;;;21.53;;
13941;SDS011;7043;51.630;7.254;2022-12-19T07:15:53;27.37;;;19.83;;
13941;SDS011;7043;51.630;7.254;2022-12-19T07:18:21;32.63;;;21.30;;
13941;SDS011;7043;51.630;7.254;2022-12-19T07:20:47;25.77;;;19.43;;
13941;SDS011;7043;51.630;7.254;2022-12-19T07:23:15;25.23;;;19.50;;
13941;SDS011;7043;51.630;7.254;2022-12-19T07:25:42;24.77;;;18.00;;
13941;SDS011;7043;51.630;7.254;2022-12-19T07:28:08;26.47;;;18.87;;
13941;SDS011;7043;51.630;7.254;2022-12-19T07:30:35;23.40;;;18.00;;
13941;SDS011;7043;51.630;7.254;2022-12-19T07:33:01;24.47;;;18.30;;
13941;SDS011;7043;51.630;7.254;2022-12-19T07:35:27;22.60;;;18.07;;
13941;SDS011;7043;51.630;7.254;2022-12-19T07:37:52;21.00;;;17.43;;
13941;SDS011;7043;51.630;7.254;2022-12-19T07:40:21;22.50;;;17.13;;
13941;SDS011;7043;51.630;7.254;2022-12-19T07:42:47;23.77;;;17.47;;
13941;SDS011;7043;51.630;7.254;2022-12-19T07:45:13;21.53;;;16.37;;
13941;SDS011;7043;51.630;7.254;2022-12-19T07:47:39;21.43;;;16.43;;
13941;SDS011;7043;51.630;7.254;2022-12-19T07:50:05;21.50;;;16.57;;
13941;SDS011;7043;51.630;7.254;2022-12-19T07:52:31;23.20;;;16.70;;
13941;SDS011;7043;51.630;7.254;2022-12-19T07:54:57;21.17;;;16.67;;
13941;SDS011;7043;51.630;7.254;2022-12-19T07:57:23;19.87;;;15.77;;
13941;SDS011;7043;51.630;7.254;2022-12-19T07:59:49;23.03;;;16.40;;
13941;SDS011;7043;51.630;7.254;2022-12-19T08:02:15;19.63;;;15.53;;
13941;SDS011;7043;51.630;7.254;2022-12-19T08:04:41;21.90;;;16.50;;
13941;SDS011;7043;51.630;7.254;2022-12-19T08:07:07;20.53;;;16.10;;
13941;SDS011;7043;51.630;7.254;2022-12-19T08:09:33;21.17;;;16.30;;
13941;SDS011;7043;51.630;7.254;2022-12-19T08:11:59;17.47;;;14.73;;
13941;SDS011;7043;51.630;7.254;2022-12-19T08:14:25;20.23;;;15.67;;
13941;SDS011;7043;51.630;7.254;2022-12-19T08:16:51;18.87;;;15.50;;
13941;SDS011;7043;51.630;7.254;2022-12-19T08:19:17;19.43;;;15.50;;
13941;SDS011;7043;51.630;7.254;2022-12-19T08:21:43;18.03;;;15.13;;
13941;SDS011;7043;51.630;7.254;2022-12-19T08:24:09;19.70;;;15.30;;
13941;SDS011;7043;51.630;7.254;2022-12-19T08:26:35;18.17;;;14.30;;
13941;SDS011;7043;51.630;7.254;2022-12-19T08:29:01;17.10;;;14.37;;
13941;SDS011;7043;51.630;7.254;2022-12-19T08:31:28;20.47;;;14.87;;
13941;SDS011;7043;51.630;7.254;2022-12-19T08:33:54;16.50;;;14.33;;
13941;SDS011;7043;51.630;7.254;2022-12-19T08:36:21;18.63;;;14.70;;
13941;SDS011;7043;51.630;7.254;2022-12-19T08:38:48;18.40;;;15.23;;
13941;SDS011;7043;51.630;7.254;2022-12-19T08:41:14;18.90;;;14.87;;
13941;SDS011;7043;51.630;7.254;2022-12-19T08:43:41;17.83;;;14.00;;
13941;SDS011;7043;51.630;7.254;2022-12-19T08:46:07;18.40;;;14.70;;
13941;SDS011;7043;51.630;7.254;2022-12-19T08:48:33;19.40;;;15.13;;
13941;SDS011;7043;51.630;7.254;2022-12-19T08:51:01;18.37;;;15.37;;
13941;SDS011;7043;51.630;7.254;2022-12-19T08:53:28;18.60;;;14.40;;
13941;SDS011;7043;51.630;7.254;2022-12-19T08:55:55;17.33;;;14.27;;
13941;SDS011;7043;51.630;7.254;2022-12-19T08:58:22;16.43;;;14.07;;
13941;SDS011;7043;51.630;7.254;2022-12-19T09:00:48;18.97;;;14.27;;
13941;SDS011;7043;51.630;7.254;2022-12-19T09:03:14;19.43;;;14.53;;
13941;SDS011;7043;51.630;7.254;2022-12-19T09:05:40;17.20;;;14.80;;
13941;SDS011;7043;51.630;7.254;2022-12-19T09:08:06;18.40;;;14.47;;
13941;SDS011;7043;51.630;7.254;2022-12-19T09:10:34;19.53;;;15.27;;
13941;SDS011;7043;51.630;7.254;2022-12-19T09:13:00;20.10;;;15.43;;
13941;SDS011;7043;51.630;7.254;2022-12-19T09:15:26;17.50;;;14.83;;
13941;SDS011;7043;51.630;7.254;2022-12-19T09:17:54;17.40;;;14.30;;
13941;SDS011;7043;51.630;7.254;2022-12-19T09:20:20;19.03;;;15.13;;
13941;SDS011;7043;51.630;7.254;2022-12-19T09:22:46;17.57;;;14.67;;
13941;SDS011;7043;51.630;7.254;2022-12-19T09:25:12;19.17;;;14.77;;
13941;SDS011;7043;51.630;7.254;2022-12-19T09:27:38;18.80;;;15.03;;
13941;SDS011;7043;51.630;7.254;2022-12-19T09:30:04;17.10;;;13.53;;
13941;SDS011;7043;51.630;7.254;2022-12-19T09:32:31;16.80;;;14.10;;
13941;SDS011;7043;51.630;7.254;2022-12-19T09:34:56;19.47;;;14.43;;
13941;SDS011;7043;51.630;7.254;2022-12-19T09:37:22;17.47;;;13.60;;
13941;SDS011;7043;51.630;7.254;2022-12-19T09:39:48;17.20;;;13.33;;
13941;SDS011;7043;51.630;7.254;2022-12-19T09:42:28;16.20;;;11.10;;
13941;SDS011;7043;51.630;7.254;2022-12-19T09:47:27;14.67;;;12.87;;
13941;SDS011;7043;51.630;7.254;2022-12-19T09:49:54;15.43;;;12.33;;
13941;SDS011;7043;51.630;7.254;2022-12-19T09:59:47;17.63;;;13.33;;
13941;SDS011;7043;51.630;7.254;2022-12-19T10:02:33;16.90;;;12.80;;
13941;SDS011;7043;51.630;7.254;2022-12-19T10:05:15;14.73;;;11.67;;
13941;SDS011;7043;51.630;7.254;2022-12-19T10:07:43;14.57;;;12.13;;
13941;SDS011;7043;51.630;7.254;2022-12-19T10:10:17;15.23;;;12.57;;
13941;SDS011;7043;51.630;7.254;2022-12-19T10:12:49;15.97;;;12.90;;
13941;SDS011;7043;51.630;7.254;2022-12-19T10:15:28;15.90;;;12.07;;
13941;SDS011;7043;51.630;7.254;2022-12-19T10:20:31;15.47;;;12.23;;
13941;SDS011;7043;51.630;7.254;2022-12-19T10:28:24;13.10;;;10.40;;
13941;SDS011;7043;51.630;7.254;2022-12-19T10:31:00;12.43;;;10.20;;
13941;SDS011;7043;51.630;7.254;2022-12-19T10:33:31;12.70;;;10.93;;
13941;SDS011;7043;51.630;7.254;2022-12-19T10:35:59;13.83;;;10.73;;
13941;SDS011;7043;51.630;7.254;2022-12-19T10:43:26;13.07;;;10.30;;
13941;SDS011;7043;51.630;7.254;2022-12-19T10:45:59;13.93;;;11.13;;
13941;SDS011;7043;51.630;7.254;2022-12-19T10:48:26;13.47;;;10.87;;
13941;SDS011;7043;51.630;7.254;2022-12-19T10:50:52;14.50;;;10.93;;
13941;SDS011;7043;51.630;7.254;2022-12-19T10:53:25;12.73;;;11.33;;
13941;SDS011;7043;51.630;7.254;2022-12-19T10:55:52;11.67;;;10.07;;
13941;SDS011;7043;51.630;7.254;2022-12-19T10:58:35;13.73;;;10.47;;
13941;SDS011;7043;51.630;7.254;2022-12-19T11:03:27;13.10;;;9.67;;
13941;SDS011;7043;51.630;7.254;2022-12-19T11:05:54;11.20;;;9.73;;
13941;SDS011;7043;51.630;7.254;2022-12-19T11:08:24;12.03;;;9.80;;
13941;SDS011;7043;51.630;7.254;2022-12-19T11:10:52;11.43;;;9.20;;
13941;SDS011;7043;51.630;7.254;2022-12-19T11:13:28;11.73;;;9.50;;
13941;SDS011;7043;51.630;7.254;2022-12-19T11:16:04;13.43;;;9.53;;
13941;SDS011;7043;51.630;7.254;2022-12-19T11:18:37;11.43;;;9.40;;
13941;SDS011;7043;51.630;7.254;2022-12-19T11:21:05;11.37;;;9.43;;
13941;SDS011;7043;51.630;7.254;2022-12-19T11:23:47;12.23;;;9.60;;
13941;SDS011;7043;51.630;7.254;2022-12-19T11:26:40;12.07;;;9.07;;
13941;SDS011;7043;51.630;7.254;2022-12-19T11:29:03;9.67;;;8.53;;
13941;SDS011;7043;51.630;7.254;2022-12-19T11:31:30;9.03;;;8.13;;
13941;SDS011;7043;51.630;7.254;2022-12-19T11:34:04;9.37;;;7.53;;
13941;SDS011;7043;51.630;7.254;2022-12-19T11:36:38;12.00;;;8.90;;
13941;SDS011;7043;51.630;7.254;2022-12-19T11:44:11;10.63;;;8.60;;
13941;SDS011;7043;51.630;7.254;2022-12-19T11:46:46;10.90;;;8.73;;
13941;SDS011;7043;51.630;7.254;2022-12-19T11:49:31;10.47;;;8.93;;
13941;SDS011;7043;51.630;7.254;2022-12-19T11:54:50;9.50;;;7.90;;
13941;SDS011;7043;51.630;7.254;2022-12-19T11:57:19;10.73;;;9.33;;
13941;SDS011;7043;51.630;7.254;2022-12-19T11:59:45;10.97;;;8.53;;
13941;SDS011;7043;51.630;7.254;2022-12-19T12:05:18;9.67;;;8.67;;
13941;SDS011;7043;51.630;7.254;2022-12-19T12:07:52;12.37;;;9.70;;
13941;SDS011;7043;51.630;7.254;2022-12-19T12:10:21;11.47;;;8.57;;
13941;SDS011;7043;51.630;7.254;2022-12-19T12:25:42;9.83;;;8.13;;
13941;SDS011;7043;51.630;7.254;2022-12-19T12:30:58;9.97;;;8.03;;
13941;SDS011;7043;51.630;7.254;2022-12-19T12:36:10;10.47;;;7.90;;
13941;SDS011;7043;51.630;7.254;2022-12-19T12:38:46;8.70;;;7.80;;
13941;SDS011;7043;51.630;7.254;2022-12-19T12:42:01;10.73;;;8.33;;
13941;SDS011;7043;51.630;7.254;2022-12-19T12:44:33;10.97;;;8.53;;
13941;SDS011;7043;51.630;7.254;2022-12-19T12:47:04;9.77;;;8.73;;
13941;SDS011;7043;51.630;7.254;2022-12-19T12:52:05;10.90;;;8.00;;
13941;SDS011;7043;51.630;7.254;2022-12-19T12:54:33;10.37;;;7.97;;
13941;SDS011;7043;51.630;7.254;2022-12-19T12:57:01;8.73;;;7.57;;
13941;SDS011;7043;51.630;7.254;2022-12-19T12:59:28;9.10;;;7.63;;
13941;SDS011;7043;51.630;7.254;2022-12-19T13:01:55;8.87;;;6.73;;
13941;SDS011;7043;51.630;7.254;2022-12-19T13:04:24;8.87;;;7.53;;
13941;SDS011;7043;51.630;7.254;2022-12-19T13:09:25;9.87;;;8.20;;
13941;SDS011;7043;51.630;7.254;2022-12-19T13:12:02;9.47;;;8.47;;
13941;SDS011;7043;51.630;7.254;2022-12-19T13:14:48;12.23;;;9.63;;
13941;SDS011;7043;51.630;7.254;2022-12-19T13:17:23;12.40;;;10.20;;
13941;SDS011;7043;51.630;7.254;2022-12-19T13:22:36;18.03;;;11.73;;
13941;SDS011;7043;51.630;7.254;2022-12-19T13:25:26;16.87;;;12.07;;
13941;SDS011;7043;51.630;7.254;2022-12-19T13:27:49;13.47;;;10.70;;
13941;SDS011;7043;51.630;7.254;2022-12-19T13:30:15;10.93;;;9.30;;
13941;SDS011;7043;51.630;7.254;2022-12-19T13:42:59;9.80;;;8.80;;
13941;SDS011;7043;51.630;7.254;2022-12-19T13:45:51;10.17;;;8.97;;
13941;SDS011;7043;51.630;7.254;2022-12-19T13:48:23;10.53;;;8.67;;
13941;SDS011;7043;51.630;7.254;2022-12-19T13:50:51;10.37;;;8.63;;
13941;SDS011;7043;51.630;7.254;2022-12-19T13:53:18;11.87;;;9.40;;
13941;SDS011;7043;51.630;7.254;2022-12-19T13:55:45;10.17;;;8.60;;
13941;SDS011;7043;51.630;7.254;2022-12-19T13:58:45;10.43;;;9.13;;
13941;SDS011;7043;51.630;7.254;2022-12-19T14:01:06;12.60;;;10.70;;
13941;SDS011;7043;51.630;7.254;2022-12-19T14:03:36;11.87;;;9.20;;
13941;SDS011;7043;51.630;7.254;2022-12-19T14:06:14;11.10;;;9.27;;
13941;SDS011;7043;51.630;7.254;2022-12-19T14:08:42;9.97;;;8.17;;
13941;SDS011;7043;51.630;7.254;2022-12-19T14:11:10;11.07;;;8.63;;
13941;SDS011;7043;51.630;7.254;2022-12-19T14:13:43;11.20;;;9.10;;
13941;SDS011;7043;51.630;7.254;2022-12-19T14:16:29;11.30;;;8.67;;
13941;SDS011;7043;51.630;7.254;2022-12-19T14:18:55;10.03;;;8.23;;
13941;SDS011;7043;51.630;7.254;2022-12-19T14:21:22;9.20;;;7.40;;
13941;SDS011;7043;51.630;7.254;2022-12-19T14:23:51;10.63;;;8.00;;
13941;SDS011;7043;51.630;7.254;2022-12-19T14:28:47;9.70;;;7.87;;
13941;SDS011;7043;51.630;7.254;2022-12-19T14:31:16;9.10;;;7.63;;
13941;SDS011;7043;51.630;7.254;2022-12-19T14:33:44;9.27;;;7.40;;
13941;SDS011;7043;51.630;7.254;2022-12-19T14:36:10;10.07;;;9.00;;
13941;SDS011;7043;51.630;7.254;2022-12-19T14:38:37;10.03;;;7.80;;
13941;SDS011;7043;51.630;7.254;2022-12-19T14:41:03;11.80;;;8.47;;
13941;SDS011;7043;51.630;7.254;2022-12-19T14:43:30;8.13;;;7.27;;
13941;SDS011;7043;51.630;7.254;2022-12-19T14:46:11;9.47;;;7.30;;
13941;SDS011;7043;51.630;7.254;2022-12-19T14:48:50;8.40;;;7.00;;
13941;SDS011;7043;51.630;7.254;2022-12-19T14:51:23;8.40;;;7.03;;
13941;SDS011;7043;51.630;7.254;2022-12-19T14:54:14;7.67;;;6.50;;
13941;SDS011;7043;51.630;7.254;2022-12-19T14:56:57;10.37;;;7.40;;
13941;SDS011;7043;51.630;7.254;2022-12-19T15:04:32;7.97;;;6.67;;
13941;SDS011;7043;51.630;7.254;2022-12-19T15:07:00;7.97;;;6.90;;
13941;SDS011;7043;51.630;7.254;2022-12-19T15:09:27;8.50;;;7.50;;
13941;SDS011;7043;51.630;7.254;2022-12-19T15:11:55;7.53;;;6.50;;
13941;SDS011;7043;51.630;7.254;2022-12-19T15:14:44;9.57;;;6.80;;
13941;SDS011;7043;51.630;7.254;2022-12-19T15:17:23;7.87;;;6.50;;
13941;SDS011;7043;51.630;7.254;2022-12-19T15:19:50;9.07;;;7.23;;
13941;SDS011;7043;51.630;7.254;2022-12-19T15:22:17;9.97;;;7.63;;
13941;SDS011;7043;51.630;7.254;2022-12-19T15:24:43;8.43;;;6.70;;
13941;SDS011;7043;51.630;7.254;2022-12-19T15:27:16;9.00;;;7.40;;
13941;SDS011;7043;51.630;7.254;2022-12-19T15:29:42;7.80;;;6.60;;
13941;SDS011;7043;51.630;7.254;2022-12-19T15:32:13;8.63;;;6.87;;
13941;SDS011;7043;51.630;7.254;2022-12-19T15:34:40;9.13;;;6.77;;
13941;SDS011;7043;51.630;7.254;2022-12-19T15:37:10;9.53;;;6.87;;
13941;SDS011;7043;51.630;7.254;2022-12-19T15:39:37;8.73;;;6.40;;
13941;SDS011;7043;51.630;7.254;2022-12-19T15:42:04;7.87;;;6.27;;
13941;SDS011;7043;51.630;7.254;2022-12-19T15:44:32;7.27;;;6.23;;
13941;SDS011;7043;51.630;7.254;2022-12-19T15:46:59;9.07;;;6.20;;
13941;SDS011;7043;51.630;7.254;2022-12-19T15:49:25;7.43;;;6.57;;
13941;SDS011;7043;51.630;7.254;2022-12-19T15:51:51;6.93;;;6.10;;
13941;SDS011;7043;51.630;7.254;2022-12-19T15:54:17;7.60;;;6.70;;
13941;SDS011;7043;51.630;7.254;2022-12-19T15:56:50;9.13;;;7.20;;
13941;SDS011;7043;51.630;7.254;2022-12-19T15:59:22;7.60;;;6.47;;
13941;SDS011;7043;51.630;7.254;2022-12-19T16:01:49;8.00;;;6.30;;
13941;SDS011;7043;51.630;7.254;2022-12-19T16:04:15;9.40;;;6.80;;
13941;SDS011;7043;51.630;7.254;2022-12-19T16:06:41;7.83;;;6.90;;
13941;SDS011;7043;51.630;7.254;2022-12-19T16:09:23;9.77;;;7.70;;
13941;SDS011;7043;51.630;7.254;2022-12-19T16:11:50;7.70;;;6.40;;
13941;SDS011;7043;51.630;7.254;2022-12-19T16:14:17;7.80;;;6.67;;
13941;SDS011;7043;51.630;7.254;2022-12-19T16:16:44;7.73;;;6.50;;
13941;SDS011;7043;51.630;7.254;2022-12-19T16:19:45;8.17;;;6.10;;
13941;SDS011;7043;51.630;7.254;2022-12-19T16:22:13;8.93;;;6.33;;
13941;SDS011;7043;51.630;7.254;2022-12-19T16:24:40;7.77;;;6.33;;
13941;SDS011;7043;51.630;7.254;2022-12-19T16:27:08;7.30;;;6.60;;
13941;SDS011;7043;51.630;7.254;2022-12-19T16:29:35;7.30;;;6.60;;
13941;SDS011;7043;51.630;7.254;2022-12-19T16:32:01;7.20;;;6.17;;
13941;SDS011;7043;51.630;7.254;2022-12-19T16:34:28;8.50;;;6.63;;
13941;SDS011;7043;51.630;7.254;2022-12-19T16:36:57;7.40;;;6.63;;
13941;SDS011;7043;51.630;7.254;2022-12-19T16:39:23;8.50;;;7.27;;
13941;SDS011;7043;51.630;7.254;2022-12-19T16:41:49;8.47;;;6.70;;
13941;SDS011;7043;51.630;7.254;2022-12-19T16:44:19;8.53;;;6.90;;
13941;SDS011;7043;51.630;7.254;2022-12-19T16:46:46;10.23;;;6.70;;
13941;SDS011;7043;51.630;7.254;2022-12-19T16:49:13;10.97;;;7.90;;